createdAt,value
2017-09-22T00:00:31.690Z,10.50
2017-09-22T00:02:59.261Z,10.50
2017-09-22T00:05:26.868Z,10.50
2017-09-22T00:07:54.586Z,10.50
2017-09-22T00:10:22.171Z,10.50
2017-09-22T00:12:49.758Z,10.40
2017-09-22T00:15:17.340Z,10.40
2017-09-22T00:17:45.702Z,10.30
2017-09-22T00:20:13.282Z,10.30
2017-09-22T00:22:41.625Z,10.30
2017-09-22T00:25:09.210Z,10.20
2017-09-22T00:27:37.563Z,10.20
2017-09-22T00:30:05.148Z,10.20
2017-09-22T00:32:32.745Z,10.20
2017-09-22T00:35:01.124Z,10.20
2017-09-22T00:37:28.702Z,10.10
2017-09-22T00:39:56.290Z,10.10
2017-09-22T00:42:31.514Z,10.10
2017-09-22T00:44:59.207Z,10.10
2017-09-22T00:47:26.786Z,10.00
2017-09-22T00:49:54.363Z,10.00
2017-09-22T00:52:22.700Z,9.90
2017-09-22T00:54:50.271Z,9.90
2017-09-22T00:57:17.859Z,9.80
2017-09-22T00:59:46.193Z,9.70
2017-09-22T01:02:13.778Z,9.60
2017-09-22T01:04:41.375Z,9.60
2017-09-22T01:07:08.954Z,9.60
2017-09-22T01:09:36.508Z,9.60
2017-09-22T01:12:04.073Z,9.60
2017-09-22T01:14:31.637Z,9.50
2017-09-22T01:16:59.206Z,9.50
2017-09-22T01:19:26.767Z,9.50
2017-09-22T01:21:54.346Z,9.40
2017-09-22T01:24:21.925Z,9.40
2017-09-22T01:26:50.289Z,9.40
2017-09-22T01:29:17.858Z,9.30
2017-09-22T01:31:45.433Z,9.30
2017-09-22T01:34:13.764Z,9.10
2017-09-22T01:36:41.390Z,9.10
2017-09-22T01:39:09.707Z,9.20
2017-09-22T01:41:37.286Z,9.20
2017-09-22T01:44:04.849Z,9.20
2017-09-22T01:46:32.416Z,9.10
2017-09-22T01:49:00.003Z,9.00
2017-09-22T01:51:27.558Z,9.00
2017-09-22T01:53:55.905Z,8.90
2017-09-22T01:56:23.458Z,8.90
2017-09-22T01:58:51.019Z,8.90
2017-09-22T02:01:18.577Z,8.90
2017-09-22T02:03:46.142Z,8.90
2017-09-22T02:06:13.694Z,8.90
2017-09-22T02:08:41.286Z,8.90
2017-09-22T02:11:08.861Z,9.00
2017-09-22T02:13:36.437Z,8.90
2017-09-22T02:16:04.004Z,8.90
2017-09-22T02:18:31.569Z,8.80
2017-09-22T02:20:59.935Z,8.80
2017-09-22T02:23:27.492Z,8.80
2017-09-22T02:25:55.077Z,8.90
2017-09-22T02:28:22.655Z,8.90
2017-09-22T02:30:50.217Z,8.80
2017-09-22T02:33:17.795Z,8.80
2017-09-22T02:35:45.367Z,8.80
2017-09-22T02:38:13.718Z,8.80
2017-09-22T02:40:41.291Z,8.80
2017-09-22T02:43:08.866Z,8.70
2017-09-22T02:45:37.226Z,8.60
2017-09-22T02:48:04.858Z,8.60
2017-09-22T02:50:32.457Z,8.60
2017-09-22T02:53:00.074Z,8.60
2017-09-22T02:55:27.623Z,8.60
2017-09-22T02:57:55.445Z,8.60
2017-09-22T03:00:23.828Z,8.60
2017-09-22T03:02:52.230Z,8.60
2017-09-22T03:05:19.789Z,8.60
2017-09-22T03:07:47.350Z,8.60
2017-09-22T03:10:14.917Z,8.60
2017-09-22T03:12:42.487Z,8.60
2017-09-22T03:15:10.077Z,8.50
2017-09-22T03:17:37.635Z,8.50
2017-09-22T03:20:05.197Z,8.50
2017-09-22T03:22:32.773Z,8.50
2017-09-22T03:25:00.350Z,8.40
2017-09-22T03:27:28.657Z,8.40
2017-09-22T03:29:56.217Z,8.40
2017-09-22T03:32:23.814Z,8.40
2017-09-22T03:34:51.381Z,8.30
2017-09-22T03:37:18.961Z,8.30
2017-09-22T03:39:47.288Z,8.20
2017-09-22T03:42:14.842Z,8.20
2017-09-22T03:44:42.434Z,8.10
2017-09-22T03:47:10.010Z,8.10
2017-09-22T03:49:37.587Z,8.10
2017-09-22T03:52:05.934Z,8.10
2017-09-22T03:54:33.497Z,8.10
2017-09-22T03:57:01.053Z,8.10
2017-09-22T03:59:28.626Z,8.10
2017-09-22T04:01:56.181Z,8.10
2017-09-22T04:04:24.534Z,8.10
2017-09-22T04:06:52.157Z,8.10
2017-09-22T04:09:21.127Z,8.00
2017-09-22T04:17:47.750Z,8.00
2017-09-22T04:20:16.047Z,8.00
2017-09-22T04:22:43.775Z,8.10
2017-09-22T04:25:11.391Z,8.10
2017-09-22T04:27:39.651Z,8.10
2017-09-22T04:30:07.278Z,8.10
2017-09-22T04:32:34.859Z,8.00
2017-09-22T04:35:02.474Z,8.10
2017-09-22T04:37:30.041Z,8.00
2017-09-22T04:39:57.660Z,8.00
2017-09-22T04:42:25.257Z,8.10
2017-09-22T04:44:52.836Z,8.10
2017-09-22T04:47:20.409Z,8.10
2017-09-22T04:49:47.982Z,8.10
2017-09-22T04:52:15.530Z,8.10
2017-09-22T04:54:43.097Z,8.10
2017-09-22T04:57:10.841Z,8.20
2017-09-22T04:59:38.402Z,8.20
2017-09-22T05:02:05.988Z,8.20
2017-09-22T05:04:33.554Z,8.30
2017-09-22T05:07:01.114Z,8.30
2017-09-22T05:09:28.727Z,8.30
2017-09-22T05:11:56.297Z,8.30
2017-09-22T05:14:23.830Z,8.30
2017-09-22T05:16:52.153Z,8.30
2017-09-22T05:19:19.734Z,8.30
2017-09-22T05:21:47.302Z,8.30
2017-09-22T05:24:14.888Z,8.30
2017-09-22T05:26:43.216Z,8.30
2017-09-22T05:29:10.787Z,8.30
2017-09-22T05:31:38.361Z,8.30
2017-09-22T05:34:05.910Z,8.30
2017-09-22T05:36:33.538Z,8.30
2017-09-22T05:39:01.089Z,8.30
2017-09-22T05:41:28.662Z,8.30
2017-09-22T05:43:56.208Z,8.20
2017-09-22T05:46:23.772Z,8.30
2017-09-22T05:48:51.337Z,8.30
2017-09-22T05:51:18.903Z,8.30
2017-09-22T05:53:46.462Z,8.30
2017-09-22T05:56:14.035Z,8.40
2017-09-22T05:58:41.631Z,8.40
2017-09-22T06:01:09.210Z,8.40
2017-09-22T06:03:37.537Z,8.30
2017-09-22T06:06:05.123Z,8.30
2017-09-22T06:08:32.706Z,8.30
2017-09-22T06:11:01.042Z,8.30
2017-09-22T06:13:28.634Z,8.30
2017-09-22T06:15:56.970Z,8.40
2017-09-22T06:18:24.572Z,8.40
2017-09-22T06:20:52.899Z,8.50
2017-09-22T06:23:20.486Z,8.50
2017-09-22T06:25:48.050Z,8.60
2017-09-22T06:28:15.635Z,8.70
2017-09-22T06:30:43.954Z,8.80
2017-09-22T06:33:12.753Z,8.80
2017-09-22T06:35:42.445Z,8.90
2017-09-22T06:38:10.026Z,8.90
2017-09-22T06:40:37.640Z,9.00
2017-09-22T06:43:05.989Z,9.20
2017-09-22T06:45:33.575Z,9.20
2017-09-22T06:48:01.924Z,9.40
2017-09-22T06:50:29.535Z,9.40
2017-09-22T06:52:57.111Z,9.40
2017-09-22T06:55:24.675Z,9.50
2017-09-22T06:57:52.264Z,9.50
2017-09-22T07:00:19.818Z,9.60
2017-09-22T07:02:47.387Z,9.70
2017-09-22T07:08:09.685Z,10.00
2017-09-22T07:10:38.276Z,10.20
2017-09-22T07:13:05.852Z,10.10
2017-09-22T07:15:33.852Z,10.30
2017-09-22T07:18:01.434Z,10.40
2017-09-22T07:20:28.992Z,10.50
2017-09-22T07:22:56.652Z,10.60
2017-09-22T07:25:24.659Z,10.80
2017-09-22T07:27:52.464Z,10.90
2017-09-22T07:30:28.267Z,11.00
2017-09-22T07:32:56.129Z,11.10
2017-09-22T07:35:24.520Z,11.20
2017-09-22T07:37:52.107Z,11.20
2017-09-22T07:40:21.714Z,11.30
2017-09-22T07:42:49.305Z,11.40
2017-09-22T07:45:16.907Z,11.50
2017-09-22T07:47:47.213Z,11.80
2017-09-22T07:50:14.816Z,11.70
2017-09-22T07:52:42.395Z,11.90
2017-09-22T07:55:09.954Z,12.00
2017-09-22T07:57:37.497Z,12.10
2017-09-22T08:00:05.195Z,12.20
2017-09-22T08:02:32.768Z,12.20
2017-09-22T08:05:00.341Z,12.30
2017-09-22T08:07:27.940Z,12.40
2017-09-22T08:09:56.270Z,12.50
2017-09-22T08:12:24.441Z,12.60
2017-09-22T08:14:52.025Z,12.60
2017-09-22T08:17:19.638Z,12.70
2017-09-22T08:19:47.637Z,12.80
2017-09-22T08:22:15.224Z,13.00
2017-09-22T08:24:43.654Z,13.30
2017-09-22T08:27:11.238Z,13.30
2017-09-22T08:29:38.808Z,13.50
2017-09-22T08:32:06.436Z,13.60
2017-09-22T08:34:34.030Z,13.80
2017-09-22T08:37:01.606Z,14.00
2017-09-22T08:39:29.202Z,14.10
2017-09-22T08:41:56.781Z,14.00
2017-09-22T08:44:24.332Z,14.00
2017-09-22T08:46:51.901Z,14.00
2017-09-22T08:49:19.759Z,14.20
2017-09-22T08:51:47.541Z,14.30
2017-09-22T08:54:15.156Z,14.40
2017-09-22T08:56:42.729Z,14.40
2017-09-22T08:59:10.273Z,14.50
2017-09-22T09:01:38.607Z,14.70
2017-09-22T09:04:06.167Z,14.60
2017-09-22T09:06:33.746Z,14.80
2017-09-22T09:09:01.325Z,14.90
2017-09-22T09:11:29.663Z,15.10
2017-09-22T09:13:57.241Z,15.10
2017-09-22T09:16:24.781Z,15.20
2017-09-22T09:18:52.371Z,15.30
2017-09-22T09:21:19.909Z,15.20
2017-09-22T09:23:47.468Z,15.40
2017-09-22T09:26:15.033Z,15.60
2017-09-22T09:28:42.630Z,15.60
2017-09-22T09:31:10.978Z,15.50
2017-09-22T09:33:38.522Z,15.50
2017-09-22T09:36:06.150Z,15.60
2017-09-22T09:38:33.718Z,15.70
2017-09-22T09:41:01.271Z,15.90
2017-09-22T09:43:28.873Z,16.00
2017-09-22T09:45:56.417Z,16.10
2017-09-22T09:48:24.014Z,16.30
2017-09-22T09:50:51.564Z,16.50
2017-09-22T09:53:19.154Z,16.10
2017-09-22T09:55:47.494Z,16.50
2017-09-22T09:58:15.066Z,16.50
2017-09-22T10:00:42.698Z,16.60
2017-09-22T10:03:10.298Z,16.80
2017-09-22T10:05:37.885Z,16.80
2017-09-22T10:08:05.462Z,16.90
2017-09-22T10:10:33.034Z,17.10
2017-09-22T10:13:00.593Z,17.10
2017-09-22T10:15:28.150Z,17.20
2017-09-22T10:17:55.751Z,17.30
2017-09-22T10:20:23.318Z,17.30
2017-09-22T10:22:52.217Z,17.40
2017-09-22T10:25:19.834Z,17.60
2017-09-22T10:27:48.412Z,17.70
2017-09-22T10:30:15.986Z,17.90
2017-09-22T10:32:43.548Z,18.00
2017-09-22T10:35:11.134Z,18.20
2017-09-22T10:37:38.773Z,18.00
2017-09-22T10:40:06.346Z,18.10
2017-09-22T10:42:33.894Z,18.20
2017-09-22T10:45:02.661Z,18.40
2017-09-22T10:47:30.228Z,18.50
2017-09-22T10:49:57.811Z,18.60
2017-09-22T10:52:25.406Z,18.80
2017-09-22T10:54:53.717Z,19.30
2017-09-22T10:57:21.278Z,19.20
2017-09-22T10:59:48.841Z,19.60
2017-09-22T11:02:16.421Z,19.80
2017-09-22T11:04:43.977Z,20.20
2017-09-22T11:07:11.547Z,20.90
2017-09-22T11:09:39.107Z,21.00
2017-09-22T11:12:06.710Z,21.00
2017-09-22T11:14:34.246Z,21.40
2017-09-22T11:17:01.839Z,21.40
2017-09-22T11:19:30.173Z,21.90
2017-09-22T11:21:57.754Z,21.80
2017-09-22T11:24:25.318Z,21.80
2017-09-22T11:26:52.883Z,22.20
2017-09-22T11:29:20.468Z,22.30
2017-09-22T11:31:47.522Z,22.40
2017-09-22T11:34:15.485Z,21.90
2017-09-22T11:36:43.826Z,21.80
2017-09-22T11:39:11.422Z,21.70
2017-09-22T11:41:39.758Z,21.70
2017-09-22T11:44:07.342Z,21.70
2017-09-22T11:46:34.904Z,21.70
2017-09-22T11:49:03.325Z,21.20
2017-09-22T11:51:30.922Z,21.20
2017-09-22T11:53:58.484Z,21.40
2017-09-22T11:56:26.045Z,21.00
2017-09-22T11:58:54.215Z,21.30
2017-09-22T12:01:21.800Z,21.10
2017-09-22T12:03:50.153Z,20.70
2017-09-22T12:06:17.730Z,20.70
2017-09-22T12:08:45.310Z,21.10
2017-09-22T12:11:13.634Z,21.60
2017-09-22T12:13:41.200Z,21.60
2017-09-22T12:16:08.766Z,21.70
2017-09-22T12:18:36.342Z,22.10
2017-09-22T12:21:03.912Z,22.00
2017-09-22T12:23:31.445Z,22.10
2017-09-22T12:25:59.032Z,22.20
2017-09-22T12:28:26.611Z,21.70
2017-09-22T12:30:54.964Z,21.90
2017-09-22T12:33:22.525Z,21.80
2017-09-22T12:35:50.073Z,22.00
2017-09-22T12:38:17.696Z,22.60
2017-09-22T12:40:45.236Z,22.60
2017-09-22T12:43:12.797Z,23.10
2017-09-22T12:45:40.850Z,23.60
2017-09-22T12:48:09.172Z,23.80
2017-09-22T12:50:36.737Z,23.70
2017-09-22T12:53:04.307Z,24.50
2017-09-22T12:55:31.849Z,24.70
2017-09-22T12:57:59.522Z,23.70
2017-09-22T13:00:27.118Z,23.70
2017-09-22T13:02:54.685Z,24.10
2017-09-22T13:05:23.006Z,24.20
2017-09-22T13:07:50.597Z,24.10
2017-09-22T13:10:18.173Z,24.30
2017-09-22T13:12:45.744Z,24.80
2017-09-22T13:15:14.106Z,24.30
2017-09-22T13:17:41.686Z,24.20
2017-09-22T13:20:10.002Z,24.30
2017-09-22T13:22:37.573Z,24.30
2017-09-22T13:25:05.145Z,24.80
2017-09-22T13:27:32.700Z,25.50
2017-09-22T13:30:00.270Z,25.70
2017-09-22T13:32:27.837Z,25.30
2017-09-22T13:34:55.609Z,24.70
2017-09-22T13:37:23.189Z,24.20
2017-09-22T13:39:51.502Z,24.90
2017-09-22T13:42:19.074Z,24.90
2017-09-22T13:44:46.668Z,24.70
2017-09-22T13:47:14.274Z,24.80
2017-09-22T13:49:43.295Z,24.30
2017-09-22T13:52:10.849Z,24.90
2017-09-22T13:54:38.415Z,25.10
2017-09-22T13:57:05.964Z,24.90
2017-09-22T13:59:33.526Z,25.10
2017-09-22T14:02:01.191Z,25.40
2017-09-22T14:04:29.458Z,25.80
2017-09-22T14:06:57.052Z,25.00
2017-09-22T14:09:24.615Z,24.60
2017-09-22T14:11:52.191Z,24.70
2017-09-22T14:14:19.790Z,24.20
2017-09-22T14:16:47.346Z,24.00
2017-09-22T14:19:15.023Z,24.20
2017-09-22T14:21:42.585Z,23.90
2017-09-22T14:24:10.139Z,23.70
2017-09-22T14:26:37.731Z,23.80
2017-09-22T14:29:05.300Z,23.50
2017-09-22T14:31:32.867Z,23.50
2017-09-22T14:34:00.488Z,23.30
2017-09-22T14:36:28.062Z,23.30
2017-09-22T14:38:55.622Z,23.20
2017-09-22T14:41:23.193Z,23.40
2017-09-22T14:43:50.780Z,23.30
2017-09-22T14:46:18.364Z,23.30
2017-09-22T14:48:46.667Z,23.10
2017-09-22T14:51:14.261Z,23.00
2017-09-22T14:53:41.850Z,22.90
2017-09-22T14:56:10.232Z,22.70
2017-09-22T14:58:38.585Z,22.50
2017-09-22T15:01:06.518Z,22.50
2017-09-22T15:03:34.074Z,22.40
2017-09-22T15:06:01.639Z,22.40
2017-09-22T15:08:29.206Z,22.40
2017-09-22T15:10:56.799Z,22.20
2017-09-22T15:13:24.371Z,22.20
2017-09-22T15:15:52.709Z,22.00
2017-09-22T15:18:20.242Z,21.90
2017-09-22T15:20:47.825Z,22.00
2017-09-22T15:23:15.377Z,22.00
2017-09-22T15:25:42.947Z,21.90
2017-09-22T15:28:10.495Z,21.80
2017-09-22T15:30:38.095Z,21.70
2017-09-22T15:33:05.660Z,21.60
2017-09-22T15:35:33.222Z,21.40
2017-09-22T15:38:01.595Z,21.40
2017-09-22T15:40:29.162Z,21.40
2017-09-22T15:42:57.509Z,21.60
2017-09-22T15:45:25.080Z,21.60
2017-09-22T15:47:52.631Z,21.60
2017-09-22T15:50:20.214Z,21.70
2017-09-22T15:52:47.778Z,21.70
2017-09-22T15:55:15.333Z,21.60
2017-09-22T15:57:42.886Z,21.70
2017-09-22T16:00:10.441Z,21.70
2017-09-22T16:02:38.009Z,21.70
2017-09-22T16:05:05.596Z,21.60
2017-09-22T16:07:33.921Z,21.60
2017-09-22T16:10:01.493Z,21.60
2017-09-22T16:12:29.056Z,21.60
2017-09-22T16:14:56.626Z,21.60
2017-09-22T16:17:24.173Z,21.50
2017-09-22T16:19:51.762Z,21.40
2017-09-22T16:22:19.300Z,21.30
2017-09-22T16:24:46.916Z,21.20
2017-09-22T16:27:14.467Z,21.20
2017-09-22T16:29:42.076Z,21.20
2017-09-22T16:32:09.637Z,21.10
2017-09-22T16:34:37.214Z,21.10
2017-09-22T16:37:04.789Z,20.90
2017-09-22T16:39:33.105Z,20.70
2017-09-22T16:42:00.684Z,20.70
2017-09-22T16:44:28.243Z,20.70
2017-09-22T16:46:55.840Z,20.60
2017-09-22T16:49:23.425Z,20.40
2017-09-22T16:51:51.761Z,20.10
2017-09-22T16:54:19.322Z,20.10
2017-09-22T16:56:46.894Z,20.00
2017-09-22T16:59:15.332Z,19.80
2017-09-22T17:01:42.935Z,19.80
2017-09-22T17:04:10.487Z,19.60
2017-09-22T17:06:38.038Z,19.60
2017-09-22T17:09:05.594Z,19.50
2017-09-22T17:11:33.149Z,19.50
2017-09-22T17:14:00.765Z,19.40
2017-09-22T17:16:28.364Z,19.40
2017-09-22T17:18:55.920Z,19.30
2017-09-22T17:21:23.462Z,19.20
2017-09-22T17:23:51.034Z,19.20
2017-09-22T17:26:18.603Z,19.10
2017-09-22T17:28:46.345Z,19.00
2017-09-22T17:31:13.941Z,18.90
2017-09-22T17:33:41.527Z,18.90
2017-09-22T17:36:09.121Z,18.80
2017-09-22T17:38:36.686Z,18.60
2017-09-22T17:41:04.276Z,18.60
2017-09-22T17:43:31.832Z,18.40
2017-09-22T17:45:59.407Z,18.30
2017-09-22T17:48:26.990Z,18.30
2017-09-22T17:50:55.342Z,18.00
2017-09-22T17:53:22.909Z,18.00
2017-09-22T17:55:50.457Z,17.90
2017-09-22T17:58:18.018Z,18.00
2017-09-22T18:00:45.615Z,17.80
2017-09-22T18:03:13.960Z,17.60
2017-09-22T18:05:41.516Z,17.50
2017-09-22T18:08:09.098Z,17.50
2017-09-22T18:10:36.745Z,17.50
2017-09-22T18:13:04.328Z,17.40
2017-09-22T18:15:34.199Z,17.40
2017-09-22T18:18:01.941Z,17.30
2017-09-22T18:20:29.527Z,17.30
2017-09-22T18:22:57.230Z,17.30
2017-09-22T18:25:25.610Z,17.10
2017-09-22T18:27:54.060Z,17.00
2017-09-22T18:30:21.623Z,17.00
2017-09-22T18:32:49.200Z,17.00
2017-09-22T18:35:16.785Z,17.00
2017-09-22T18:37:45.159Z,16.90
2017-09-22T18:40:12.747Z,16.90
2017-09-22T18:42:40.314Z,16.80
2017-09-22T18:45:07.924Z,16.70
2017-09-22T18:47:35.506Z,16.70
2017-09-22T18:50:03.902Z,16.70
2017-09-22T18:52:32.256Z,16.60
2017-09-22T18:54:59.851Z,16.60
2017-09-22T18:57:27.428Z,16.60
2017-09-22T18:59:55.014Z,16.70
2017-09-22T19:02:22.596Z,16.60
2017-09-22T19:04:50.964Z,16.60
2017-09-22T19:07:18.541Z,16.60
2017-09-22T19:09:46.926Z,16.40
2017-09-22T19:12:15.278Z,16.40
2017-09-22T19:14:42.850Z,16.40
2017-09-22T19:17:10.446Z,16.40
2017-09-22T19:19:37.998Z,16.40
2017-09-22T19:22:06.341Z,16.30
2017-09-22T19:24:33.961Z,16.20
2017-09-22T19:27:01.621Z,16.20
2017-09-22T19:29:29.236Z,16.20
2017-09-22T19:31:56.824Z,16.10
2017-09-22T19:34:24.462Z,16.10
2017-09-22T19:36:52.034Z,16.10
2017-09-22T19:39:20.420Z,15.90
2017-09-22T19:41:48.758Z,15.90
2017-09-22T19:44:16.371Z,15.90
2017-09-22T19:46:43.973Z,15.90
2017-09-22T19:49:11.560Z,15.80
2017-09-22T19:51:39.150Z,15.70
2017-09-22T19:54:06.738Z,15.60
2017-09-22T19:56:34.306Z,15.50
2017-09-22T19:59:01.893Z,15.50
2017-09-22T20:01:29.550Z,15.40
2017-09-22T20:03:57.153Z,15.40
2017-09-22T20:06:24.765Z,15.30
2017-09-22T20:08:52.358Z,15.30
2017-09-22T20:11:20.703Z,15.20
2017-09-22T20:13:48.301Z,15.20
2017-09-22T20:16:16.643Z,15.00
2017-09-22T20:18:44.241Z,15.00
2017-09-22T20:21:12.676Z,14.90
2017-09-22T20:23:40.249Z,14.90
2017-09-22T20:26:07.872Z,14.80
2017-09-22T20:28:35.455Z,14.70
2017-09-22T20:31:03.092Z,14.60
2017-09-22T20:33:30.660Z,14.60
2017-09-22T20:35:58.282Z,14.50
2017-09-22T20:38:26.660Z,14.60
2017-09-22T20:40:55.038Z,14.50
2017-09-22T20:43:23.410Z,14.50
2017-09-22T20:45:51.020Z,14.50
2017-09-22T20:48:18.607Z,14.50
2017-09-22T20:50:46.174Z,14.40
2017-09-22T20:53:13.785Z,14.40
2017-09-22T20:55:41.337Z,14.40
2017-09-22T20:58:08.934Z,14.30
2017-09-22T21:00:36.516Z,14.30
2017-09-22T21:03:04.103Z,14.20
2017-09-22T21:05:32.467Z,14.10
2017-09-22T21:08:00.049Z,14.10
2017-09-22T21:10:28.385Z,13.90
2017-09-22T21:12:56.003Z,13.80
2017-09-22T21:15:23.675Z,13.90
2017-09-22T21:17:51.242Z,13.90
2017-09-22T21:20:18.826Z,13.90
2017-09-22T21:22:46.444Z,13.80
2017-09-22T21:25:14.050Z,13.80
2017-09-22T21:27:41.691Z,13.80
2017-09-22T21:30:09.282Z,13.80
2017-09-22T21:32:36.848Z,13.60
2017-09-22T21:35:04.419Z,13.50
2017-09-22T21:37:31.989Z,13.50
2017-09-22T21:40:00.360Z,13.50
2017-09-22T21:42:28.690Z,13.50
2017-09-22T21:44:56.260Z,13.50
2017-09-22T21:47:23.859Z,13.50
2017-09-22T21:49:51.456Z,13.50
2017-09-22T21:52:19.048Z,13.50
2017-09-22T21:54:46.858Z,13.50
2017-09-22T21:57:14.530Z,13.50
2017-09-22T21:59:42.155Z,13.50
2017-09-22T22:02:09.785Z,13.50
2017-09-22T22:04:43.076Z,13.50
2017-09-22T22:10:05.855Z,13.50
2017-09-22T22:12:33.461Z,13.50
2017-09-22T22:15:01.869Z,13.60
2017-09-22T22:17:29.503Z,13.50
2017-09-22T22:19:57.919Z,13.50
2017-09-22T22:22:25.553Z,13.50
2017-09-22T22:24:53.216Z,13.50
2017-09-22T22:27:20.840Z,13.50
2017-09-22T22:29:48.537Z,13.50
2017-09-22T22:32:16.144Z,13.50
2017-09-22T22:34:43.804Z,13.50
2017-09-22T22:37:11.420Z,13.40
2017-09-22T22:39:39.831Z,13.40
2017-09-22T22:42:07.454Z,13.40
2017-09-22T22:44:35.871Z,13.40
2017-09-22T22:47:03.511Z,13.40
2017-09-22T22:49:31.127Z,13.40
2017-09-22T22:51:58.760Z,13.30
2017-09-22T22:54:26.383Z,13.30
2017-09-22T22:56:54.773Z,13.30
2017-09-22T22:59:22.392Z,13.30
2017-09-22T23:01:49.993Z,13.30
2017-09-22T23:04:17.643Z,13.30
2017-09-22T23:06:46.078Z,13.40
2017-09-22T23:09:14.599Z,13.40
2017-09-22T23:11:43.024Z,13.30
2017-09-22T23:14:10.680Z,13.20
2017-09-22T23:16:38.336Z,13.30
2017-09-22T23:19:05.961Z,13.30
2017-09-22T23:21:34.362Z,13.30
2017-09-22T23:24:01.997Z,13.30
2017-09-22T23:26:29.644Z,13.30
2017-09-22T23:28:57.322Z,13.20
2017-09-22T23:31:25.761Z,13.30
2017-09-22T23:33:53.378Z,13.30
2017-09-22T23:36:21.777Z,13.30
2017-09-22T23:38:49.393Z,13.20
2017-09-22T23:41:17.063Z,13.20
2017-09-22T23:43:44.689Z,13.10
2017-09-22T23:46:12.321Z,13.10
2017-09-22T23:48:39.969Z,13.10
2017-09-22T23:51:08.390Z,13.10
2017-09-22T23:53:35.996Z,13.10
2017-09-22T23:56:04.391Z,13.10
2017-09-22T23:58:32.053Z,13.00
